17 août 2022

Temps Code Temps Temp. Vue Base cloud Vent METAR/SPECI
10:30
V
19 °C 10 km+ 5.800 ft 290° 290° 4 kt METAR LFBO 170830Z AUTO 29004KT 250V330 9999 FEW011 OVC058 19/16 Q1012 BECMG SCT050 FEW070TCU
10:00
V
18 °C 10 km+ 5.800 ft 310° 310° 5 kt METAR LFBO 170800Z AUTO 31005KT 9999 FEW010 OVC058 18/16 Q1012 NOSIG
09:30
V
18 °C 10 km+ 5.800 ft 310° 310° 7 kt METAR LFBO 170730Z AUTO 31007KT 9999 FEW009 OVC058 18/16 Q1012 NOSIG
09:00
V
18 °C 10 km+ 5.800 ft 320° 320° 6 kt METAR LFBO 170700Z AUTO 32006KT 280V340 9999 FEW007 SCT011 OVC058 18/16 Q1012 NOSIG
08:30
V
18 °C 10 km+ - 320° 320° 5 kt METAR LFBO 170630Z AUTO 32005KT CAVOK 18/16 Q1012 NOSIG
08:00
V
18 °C 10 km+ 6.000 ft 310° 310° 4 kt METAR LFBO 170600Z AUTO 31004KT 9999 FEW019 OVC060 18/16 Q1011 TEMPO BKN013
07:30
M
17 °C 10 km+ 1.900 ft Var Var 3 kt METAR LFBO 170530Z AUTO VRB03KT 9999 BKN019 OVC062 17/16 Q1011 TEMPO BKN013
07:00
M
17 °C 10 km+ 2.000 ft Var Var 1 kt METAR LFBO 170500Z AUTO VRB01KT 9999 OVC020 17/16 Q1011 TEMPO BKN013
06:30
M
17 °C 10 km+ 2.000 ft Var Var 3 kt METAR LFBO 170430Z AUTO VRB03KT 9999 BKN020 BKN130 17/16 Q1011 TEMPO BKN013
06:00
V
17 °C 10 km+ - 230° 230° 5 kt METAR LFBO 170400Z AUTO 23005KT CAVOK 17/16 Q1011 TEMPO BKN013
05:30
V
17 °C 10 km+ - 220° 220° 6 kt METAR LFBO 170330Z AUTO 22006KT 9999 FEW018 SCT130 17/16 Q1011 TEMPO BKN013
05:00
V
17 °C 10 km+ - 250° 250° 6 kt METAR LFBO 170300Z AUTO 25006KT 220V280 CAVOK 17/16 Q1011 TEMPO OVC007
04:30
V
17 °C 10 km+ 11.000 ft 240° 240° 6 kt METAR LFBO 170230Z AUTO 24006KT 9999 FEW014 BKN110 BKN140 17/16 Q1011 TEMPO OVC007
04:00
V
17 °C 10 km+ - 280° 280° 5 kt METAR LFBO 170200Z AUTO 28005KT 250V310 CAVOK 17/16 Q1011 TEMPO OVC007
03:30
V
17 °C 10 km+ - 300° 300° 9 kt METAR LFBO 170130Z AUTO 30009KT CAVOK 17/16 Q1011 TEMPO OVC007
03:00
V
17 °C 10 km+ 12.000 ft 270° 270° 11 kt METAR LFBO 170100Z AUTO 27011KT 9999 FEW008 BKN120 BKN140 17/16 Q1011 TEMPO OVC007
02:30
V
18 °C 10 km+ - 310° 310° 5 kt METAR LFBO 170030Z AUTO 31005KT CAVOK 18/17 Q1010 TEMPO OVC007
02:00
V
18 °C 10 km+ 11.000 ft 290° 290° 11 kt METAR LFBO 170000Z AUTO 29011KT 9999 -RA FEW032/// BKN110/// OVC150/// //////CB 18/17 Q1010 TEMPO VRB20G30KT 4000 TSRA BKN013
01:30
M
18 °C 6 km 10.000 ft 330° 330° 4 kt METAR LFBO 162330Z AUTO 33004KT 280V360 6000 RA VCTS FEW015/// SCT064/// OVC100/// ///CB 18/17 Q1010 TEMPO VRB20G30KT 4000 TSRA BKN013
01:00
L
19 °C 1,2 km 6.200 ft 260° 260° 32 - 46 kt METAR LFBO 162300Z AUTO 26032G46KT 220V280 7000 1200 R14R/1500D R32L/P2000 R14L/P2000 R32R/P2000 +TSRA FEW030/// SCT047/// BKN062/// //////CB 19/16 Q1011 TEMPO 4000 BECMG 31008KT
00:30
V
23 °C 10 km+ - 310° 310° 4 kt METAR LFBO 162230Z AUTO 31004KT 9999 //////CB 23/15 Q1009 TEMPO VRB20G30KT 4000
00:00
V
23 °C 10 km+ - 350° 350° 4 kt METAR LFBO 162200Z AUTO 35004KT 310V030 CAVOK 23/15 Q1009 TEMPO VRB20G30KT 4000 BECMG FEW070CB BKN120

16 août 2022

Temps Code Temps Temp. Vue Base cloud Vent METAR/SPECI
23:30
V
24 °C 10 km+ - 050° 050° 5 kt METAR LFBO 162130Z AUTO 05005KT 030V090 CAVOK 24/15 Q1009 TEMPO VRB20G30KT 4000 BECMG FEW070CB BKN120
23:00
V
24 °C 10 km+ - 360° 360° 5 kt METAR LFBO 162100Z AUTO 36005KT 340V040 CAVOK 24/14 Q1010 TEMPO VRB20G30KT 2000 TSRAGR BECMG FEW070CB BKN120
22:30
V
24 °C 10 km+ - 330° 330° 6 kt METAR LFBO 162030Z AUTO 33006KT 300V010 CAVOK 24/14 Q1010 TEMPO VRB20G30KT 2000 TSRAGR BECMG FEW070CB BKN120
22:00
V
24 °C 10 km+ - 320° 320° 7 kt METAR LFBO 162000Z AUTO 32007KT CAVOK 24/15 Q1009 TEMPO VRB20G30KT 2000 TSRAGR BECMG FEW070CB BKN120
21:30
V
25 °C 10 km+ - 330° 330° 9 kt METAR LFBO 161930Z AUTO 33009KT CAVOK 25/15 Q1009 TEMPO VRB20G30KT 2000 TSRAGR BECMG FEW070CB BKN120
21:00
V
25 °C 10 km+ - 340° 340° 9 kt METAR LFBO 161900Z AUTO 34009KT CAVOK 25/15 Q1008 TEMPO VRB20G30KT 4000 BECMG FEW070CB BKN120
20:30
V
25 °C 10 km+ - 360° 360° 11 kt METAR LFBO 161830Z AUTO 36011KT CAVOK 25/15 Q1008 TEMPO VRB20G30KT 4000 BECMG FEW070CB BKN120
20:00
V
26 °C 10 km+ - 360° 360° 11 kt METAR LFBO 161800Z AUTO 36011KT CAVOK 26/15 Q1008 BECMG FEW070CB BKN120
19:30
V
27 °C 10 km+ - 350° 350° 11 kt METAR LFBO 161730Z AUTO 35011KT CAVOK 27/15 Q1008 TEMPO VRB20G35KT 3000 BECMG SCT050 FEW070CB BKN130
19:00
V
28 °C 10 km+ - 310° 310° 10 kt METAR LFBO 161700Z AUTO 31010KT 9999 //////TCU 28/15 Q1008 TEMPO VRB15G25KT TSRA BECMG SCT050 FEW070CB BKN130
18:30
V
28 °C 10 km+ - 300° 300° 9 kt METAR LFBO 161630Z AUTO 30009KT 270V330 CAVOK 28/15 Q1008 TEMPO VRB15G25KT TSRA BECMG SCT050 FEW070CB BKN130
18:00
V
28 °C 10 km+ - 300° 300° 11 kt METAR LFBO 161600Z AUTO 30011KT 9999 //////TCU 28/15 Q1008 TEMPO VRB15G25KT TSRA BECMG SCT050 FEW070CB BKN130
17:30
V
28 °C 10 km+ - 310° 310° 12 kt METAR LFBO 161530Z AUTO 31012KT CAVOK 28/15 Q1008 TEMPO VRB15G25KT TSRA BECMG SCT050 FEW070CB BKN130
17:00
V
29 °C 10 km+ - 300° 300° 16 kt METAR LFBO 161500Z AUTO 30016KT 9999 ///CB 29/15 Q1007 TEMPO VRB15G25KT TSRA
16:30
V
30 °C 10 km+ - 290° 290° 14 kt METAR LFBO 161430Z AUTO 29014KT 260V320 9999 ///CB 30/14 Q1007 TEMPO VRB15G25KT TSRA
16:00
V
31 °C 10 km+ - 300° 300° 19 kt METAR LFBO 161400Z AUTO 30019KT 9999 ///CB 31/14 Q1006 TEMPO VRB15G25KT TSRA
15:30
V
32 °C 10 km+ - 300° 300° 18 kt METAR LFBO 161330Z AUTO 30018KT CAVOK 32/15 Q1006 TEMPO VRB15G25KT TSRA BECMG SCT050 FEW070CB BKN130
15:00
V
31 °C 10 km+ - 320° 320° 17 kt METAR LFBO 161300Z AUTO 32017KT CAVOK 31/15 Q1006 TEMPO VRB15G25KT TSRA BECMG SCT050 FEW070CB BKN130
14:30
V
31 °C 10 km+ - 310° 310° 17 kt METAR LFBO 161230Z AUTO 31017KT CAVOK 31/16 Q1006 TEMPO VRB15G25KT TSRA BECMG SCT050 FEW070CB BKN130
14:00
V
32 °C 10 km+ 21.000 ft Var Var 6 kt METAR LFBO 161200Z AUTO VRB06KT 9999 FEW009 BKN210 32/13 Q1006 TEMPO VRB15G25KT TSRA BECMG SCT050 FEW070CB BKN130
13:30
V
32 °C 10 km+ - 120° 120° 7 kt METAR LFBO 161130Z AUTO 12007KT 080V180 CAVOK 32/13 Q1006 BECMG 30012KT FEW080CB
13:00
V
31 °C 10 km+ - 120° 120° 11 kt METAR LFBO 161100Z AUTO 12011KT 9999 FEW009 SCT230 31/13 Q1005 BECMG 30012KT FEW080CB
12:30
V
33 °C 10 km+ - 130° 130° 15 kt METAR LFBO 161030Z AUTO 13015KT 9999 FEW008 33/13 Q1005 BECMG 30012KT FEW080CB
12:00
V
31 °C 10 km+ - 140° 140° 14 kt METAR LFBO 161000Z AUTO 14014KT CAVOK 31/13 Q1005 BECMG 30012KT FEW080CB
11:30
V
30 °C 10 km+ - 130° 130° 11 kt METAR LFBO 160930Z AUTO 13011KT 100V160 CAVOK 30/13 Q1006 BECMG 30012KT FEW080CB
11:00
V
29 °C 10 km+ - 140° 140° 14 kt METAR LFBO 160900Z AUTO 14014KT CAVOK 29/13 Q1006 BECMG VRB03KT
10:30
V
27 °C 10 km+ - 120° 120° 9 kt METAR LFBO 160830Z AUTO 12009KT 090V150 CAVOK 27/13 Q1006 NOSIG
10:00
V
26 °C 10 km+ - 140° 140° 6 kt METAR LFBO 160800Z AUTO 14006KT 090V170 CAVOK 26/13 Q1006 NOSIG
09:30
V
24 °C 10 km+ - 130° 130° 11 kt METAR LFBO 160730Z AUTO 13011KT 9999 FEW008 24/13 Q1006 NOSIG
09:00
V
22 °C 10 km+ - 130° 130° 9 kt METAR LFBO 160700Z AUTO 13009KT CAVOK 22/14 Q1006 NOSIG
08:30
V
21 °C 10 km+ - 130° 130° 9 kt METAR LFBO 160630Z AUTO 13009KT CAVOK 21/14 Q1006 NOSIG
08:00
V
20 °C 10 km+ - 130° 130° 7 kt METAR LFBO 160600Z AUTO 13007KT CAVOK 20/14 Q1007 NOSIG
07:30
V
18 °C 10 km+ - 110° 110° 4 kt METAR LFBO 160530Z AUTO 11004KT 090V150 CAVOK 18/14 Q1007 NOSIG
07:00
V
18 °C 10 km+ - 160° 160° 2 kt METAR LFBO 160500Z AUTO 16002KT CAVOK 18/14 Q1007 TEMPO 14012KT
06:30
V
18 °C 10 km+ - 180° 180° 3 kt METAR LFBO 160430Z AUTO 18003KT 140V210 CAVOK 18/14 Q1007 NOSIG
06:00
V
18 °C 10 km+ - 180° 180° 3 kt METAR LFBO 160400Z AUTO 18003KT CAVOK 18/14 Q1007 NOSIG
05:30
V
18 °C 10 km+ - 170° 170° 3 kt METAR LFBO 160330Z AUTO 17003KT CAVOK 18/14 Q1007 NOSIG
05:00
V
19 °C 10 km+ - 280° 280° 2 kt METAR LFBO 160300Z AUTO 28002KT CAVOK 19/13 Q1008 NOSIG
04:30
V
20 °C 10 km+ - 310° 310° 3 kt METAR LFBO 160230Z AUTO 31003KT CAVOK 20/13 Q1008 NOSIG
04:00
V
20 °C 10 km+ - Var Var 2 kt METAR LFBO 160200Z AUTO VRB02KT CAVOK 20/14 Q1008 NOSIG
03:30
V
21 °C 10 km+ - Var Var 3 kt METAR LFBO 160130Z AUTO VRB03KT CAVOK 21/13 Q1008 NOSIG
03:00
V
21 °C 10 km+ - 300° 300° 5 kt METAR LFBO 160100Z AUTO 30005KT CAVOK 21/13 Q1009 NOSIG
02:30
V
21 °C 10 km+ - 300° 300° 4 kt METAR LFBO 160030Z AUTO 30004KT CAVOK 21/13 Q1009 NOSIG
02:00
V
22 °C 10 km+ - 300° 300° 3 kt METAR LFBO 160000Z AUTO 30003KT CAVOK 22/13 Q1009 NOSIG
01:30
V
22 °C 10 km+ - 330° 330° 3 kt METAR LFBO 152330Z AUTO 33003KT 310V020 CAVOK 22/13 Q1009 NOSIG
01:00
V
23 °C 10 km+ - 320° 320° 4 kt METAR LFBO 152300Z AUTO 32004KT CAVOK 23/13 Q1009 NOSIG
00:30
V
24 °C 10 km+ - 320° 320° 5 kt METAR LFBO 152230Z AUTO 32005KT CAVOK 24/13 Q1009 NOSIG
00:00
V
23 °C 10 km+ - 290° 290° 5 kt METAR LFBO 152200Z AUTO 29005KT CAVOK 23/13 Q1009 NOSIG

15 août 2022

Temps Code Temps Temp. Vue Base cloud Vent METAR/SPECI
23:30
V
24 °C 10 km+ - 300° 300° 5 kt METAR LFBO 152130Z AUTO 30005KT CAVOK 24/13 Q1009 NOSIG
23:00
V
25 °C 10 km+ - 340° 340° 5 kt METAR LFBO 152100Z AUTO 34005KT CAVOK 25/13 Q1009 NOSIG
22:30
V
26 °C 10 km+ - 320° 320° 7 kt METAR LFBO 152030Z AUTO 32007KT CAVOK 26/13 Q1009 NOSIG
22:00
V
26 °C 10 km+ - 320° 320° 8 kt METAR LFBO 152000Z AUTO 32008KT CAVOK 26/13 Q1009 NOSIG
21:30
V
27 °C 10 km+ - 340° 340° 6 kt METAR LFBO 151930Z AUTO 34006KT CAVOK 27/13 Q1009 NOSIG
21:00
V
27 °C 10 km+ - 310° 310° 7 kt METAR LFBO 151900Z AUTO 31007KT CAVOK 27/13 Q1009 NOSIG
20:30
V
28 °C 10 km+ - 300° 300° 7 kt METAR LFBO 151830Z AUTO 30007KT CAVOK 28/13 Q1008 NOSIG
20:00
V
28 °C 10 km+ - 320° 320° 8 kt METAR LFBO 151800Z AUTO 32008KT CAVOK 28/12 Q1008 NOSIG
19:30
V
28 °C 10 km+ - 310° 310° 3 kt METAR LFBO 151730Z AUTO 31003KT 270V020 CAVOK 28/12 Q1008 NOSIG
19:00
V
29 °C 10 km+ - 340° 340° 8 kt METAR LFBO 151700Z AUTO 34008KT 320V020 CAVOK 29/13 Q1008 NOSIG
18:30
V
29 °C 10 km+ - 340° 340° 8 kt METAR LFBO 151630Z AUTO 34008KT 300V030 CAVOK 29/13 Q1008 NOSIG
18:00
V
28 °C 10 km+ - 340° 340° 7 kt METAR LFBO 151600Z AUTO 34007KT 290V050 CAVOK 28/13 Q1009 NOSIG
17:30
V
29 °C 10 km+ - 320° 320° 8 kt METAR LFBO 151530Z AUTO 32008KT 290V360 CAVOK 29/12 Q1009 NOSIG
17:00
V
29 °C 10 km+ - 330° 330° 5 kt METAR LFBO 151500Z AUTO 33005KT 260V030 CAVOK 29/12 Q1009 NOSIG
16:30
V
29 °C 10 km+ - 290° 290° 5 kt METAR LFBO 151430Z AUTO 29005KT 200V330 CAVOK 29/12 Q1009 NOSIG
16:00
V
29 °C 10 km+ - 350° 350° 9 kt METAR LFBO 151400Z AUTO 35009KT CAVOK 29/13 Q1009 BECMG 29010KT
15:30
V
29 °C 10 km+ - 330° 330° 8 kt METAR LFBO 151330Z AUTO 33008KT 280V060 CAVOK 29/13 Q1009 NOSIG
15:00
V
29 °C 10 km+ - 290° 290° 7 kt METAR LFBO 151300Z AUTO 29007KT 220V010 CAVOK 29/13 Q1010 NOSIG
14:30
V
28 °C 10 km+ - 330° 330° 9 kt METAR LFBO 151230Z AUTO 33009KT 270V010 CAVOK 28/13 Q1010 NOSIG
14:00
V
27 °C 10 km+ - 270° 270° 6 kt METAR LFBO 151200Z AUTO 27006KT 180V320 CAVOK 27/13 Q1010 NOSIG
13:30
V
27 °C 10 km+ 4.800 ft 310° 310° 5 kt METAR LFBO 151130Z AUTO 31005KT 230V360 9999 BKN048 BKN056 27/14 Q1010 NOSIG
13:00
V
26 °C 10 km+ 4.300 ft 240° 240° 7 kt METAR LFBO 151100Z AUTO 24007KT 180V310 9999 BKN043 BKN050 26/14 Q1011 NOSIG
12:30
V
25 °C 10 km+ - Var Var 4 kt METAR LFBO 151030Z AUTO VRB04KT 9999 FEW040 SCT056 25/14 Q1011 NOSIG
12:00
V
24 °C 10 km+ 5.200 ft 260° 260° 4 kt METAR LFBO 151000Z AUTO 26004KT 220V340 9999 FEW036 BKN052 24/14 Q1011 NOSIG
11:30
V
24 °C 10 km+ 5.000 ft Var Var 2 kt METAR LFBO 150930Z AUTO VRB02KT 9999 FEW033 OVC050 24/15 Q1011 NOSIG
11:00
V
22 °C 10 km+ 4.900 ft 310° 310° 3 kt METAR LFBO 150900Z AUTO 31003KT 210V020 9999 FEW030 OVC049 22/15 Q1011 NOSIG
Données plus anciennes

Nous et des tiers suivons ton comportement sur Internet sur notre site Web à l'aide de cookies. Si tu continues, nous supposons que tu acceptes notre politique en matière de cookies. Apprendre plus